createdAt,value
2023-05-21T00:00:59.421Z,0.0000
2023-05-21T00:02:01.917Z,0.0000
2023-05-21T00:03:04.229Z,0.0000
2023-05-21T00:04:05.619Z,0.0000
2023-05-21T00:05:07.439Z,0.0000
2023-05-21T00:06:09.955Z,0.0000
2023-05-21T00:07:11.607Z,0.0000
2023-05-21T00:08:12.652Z,0.0000
2023-05-21T00:09:14.287Z,0.0000
2023-05-21T00:10:16.082Z,0.0000
2023-05-21T00:11:16.977Z,0.0000
2023-05-21T00:12:18.145Z,0.0000
2023-05-21T00:13:20.105Z,0.0000
2023-05-21T00:14:21.445Z,0.0000
2023-05-21T00:15:22.048Z,0.0000
2023-05-21T00:16:23.129Z,0.0000
2023-05-21T00:17:24.377Z,0.0000
2023-05-21T00:19:25.399Z,0.0000
2023-05-21T00:20:26.930Z,0.0000
2023-05-21T00:21:28.873Z,0.0000
2023-05-21T00:23:30.980Z,0.0000
2023-05-21T00:24:33.206Z,0.0000
2023-05-21T00:25:34.461Z,0.0000
2023-05-21T00:26:35.573Z,0.0000
2023-05-21T00:28:39.440Z,0.0000
2023-05-21T00:31:40.290Z,0.0000
2023-05-21T00:32:41.291Z,0.0000
2023-05-21T00:33:43.972Z,0.0000
2023-05-21T00:34:44.143Z,0.0000
2023-05-21T00:35:45.897Z,0.0000
2023-05-21T00:36:47.090Z,0.0000
2023-05-21T00:37:48.274Z,0.0000
2023-05-21T00:38:51.017Z,0.0000
2023-05-21T00:39:51.919Z,0.0000
2023-05-21T00:40:52.943Z,0.0000
2023-05-21T00:41:54.764Z,0.0000
2023-05-21T00:42:56.114Z,0.0000
2023-05-21T00:43:58.210Z,0.0000
2023-05-21T00:44:59.841Z,0.0000
2023-05-21T00:46:00.743Z,0.0000
2023-05-21T00:47:02.529Z,0.0000
2023-05-21T00:48:03.853Z,0.0000
2023-05-21T00:49:05.032Z,0.0000
2023-05-21T00:50:06.965Z,0.0000
2023-05-21T00:51:09.430Z,0.0000
2023-05-21T00:52:10.460Z,0.0000
2023-05-21T00:53:11.505Z,0.0000
2023-05-21T00:54:13.298Z,0.0000
2023-05-21T00:55:15.251Z,0.0000
2023-05-21T00:56:16.292Z,0.0000
2023-05-21T00:57:16.924Z,0.0000
2023-05-21T00:58:19.154Z,0.0000
2023-05-21T00:59:20.367Z,0.0000
2023-05-21T01:00:21.697Z,0.0000
2023-05-21T01:01:23.832Z,0.0000
2023-05-21T01:02:25.744Z,0.0000
2023-05-21T01:03:27.292Z,0.0000
2023-05-21T01:04:29.204Z,0.0000
2023-05-21T01:05:30.847Z,0.0000
2023-05-21T01:06:32.522Z,0.0000
2023-05-21T01:07:33.512Z,0.0000
2023-05-21T01:08:35.009Z,0.0000
2023-05-21T01:09:37.425Z,0.0000
2023-05-21T01:18:46.235Z,0.0000
2023-05-21T01:19:46.611Z,0.0000
2023-05-21T01:23:48.022Z,0.0000
2023-05-21T01:24:49.630Z,0.0000
2023-05-21T01:28:52.778Z,0.0000
2023-05-21T01:29:53.668Z,0.0000
2023-05-21T01:30:55.868Z,0.0000
2023-05-21T01:31:58.077Z,0.0000
2023-05-21T01:32:59.345Z,0.0000
2023-05-21T01:34:01.706Z,0.0000
2023-05-21T01:37:05.221Z,0.0000
2023-05-21T01:38:07.109Z,0.0000
2023-05-21T01:40:08.093Z,0.0000
2023-05-21T01:41:09.994Z,0.0000
2023-05-21T01:42:10.877Z,0.0000
2023-05-21T01:43:11.984Z,0.0000
2023-05-21T01:44:13.743Z,0.0000
2023-05-21T01:45:15.652Z,0.0000
2023-05-21T01:46:16.689Z,0.0000
2023-05-21T01:47:17.700Z,0.0000
2023-05-21T01:48:18.689Z,0.0000
2023-05-21T01:49:20.570Z,0.0000
2023-05-21T01:54:24.285Z,0.0000
2023-05-21T01:55:25.485Z,0.0000
2023-05-21T01:56:27.347Z,0.0000
2023-05-21T01:57:28.310Z,0.0000
2023-05-21T01:58:30.542Z,0.0000
2023-05-21T01:59:31.769Z,0.0000
2023-05-21T02:00:33.465Z,0.0000
2023-05-21T02:01:36.019Z,0.0000
2023-05-21T02:02:36.712Z,0.0000
2023-05-21T02:03:36.789Z,0.0000
2023-05-21T02:04:39.297Z,0.0000
2023-05-21T02:05:39.585Z,0.0000
2023-05-21T02:06:40.592Z,0.0000
2023-05-21T02:07:42.501Z,0.0000
2023-05-21T02:08:43.301Z,0.0000
2023-05-21T02:15:51.270Z,0.0000
2023-05-21T02:16:53.394Z,0.0000
2023-05-21T02:17:55.966Z,0.0000
2023-05-21T02:20:58.235Z,0.0000
2023-05-21T02:21:59.405Z,0.0000
2023-05-21T02:23:00.334Z,0.0000
2023-05-21T02:24:02.406Z,0.0000
2023-05-21T02:25:06.979Z,0.0000
2023-05-21T02:27:04.672Z,0.0000
2023-05-21T02:28:06.845Z,0.0000
2023-05-21T02:29:08.143Z,0.0000
2023-05-21T02:31:11.473Z,0.0000
2023-05-21T02:34:14.275Z,0.0000
2023-05-21T02:35:15.462Z,0.0000
2023-05-21T02:36:16.436Z,0.0000
2023-05-21T02:37:18.886Z,0.0000
2023-05-21T02:38:20.496Z,0.0000
2023-05-21T02:39:21.982Z,0.0000
2023-05-21T02:40:22.356Z,0.0000
2023-05-21T02:41:23.480Z,0.0000
2023-05-21T02:42:25.124Z,0.0000
2023-05-21T02:43:26.112Z,0.0000
2023-05-21T02:44:28.288Z,0.0000
2023-05-21T02:45:29.597Z,0.0000
2023-05-21T02:46:30.745Z,0.0000
2023-05-21T02:47:32.678Z,0.0000
2023-05-21T02:48:33.519Z,0.0000
2023-05-21T02:49:35.538Z,0.0000
2023-05-21T02:57:43.679Z,0.0000
2023-05-21T02:58:45.712Z,0.0000
2023-05-21T02:59:47.287Z,0.0000
2023-05-21T03:00:48.357Z,0.0000
2023-05-21T03:01:50.760Z,0.0000
2023-05-21T03:02:50.943Z,0.0000
2023-05-21T03:03:52.610Z,0.0000
2023-05-21T03:04:54.350Z,0.0000
2023-05-21T03:05:56.187Z,0.0000
2023-05-21T03:06:56.931Z,0.0000
2023-05-21T03:07:58.352Z,0.0000
2023-05-21T03:09:00.577Z,0.0000
2023-05-21T03:10:01.606Z,3.5000
2023-05-21T03:11:03.177Z,4.0000
2023-05-21T03:12:04.711Z,4.0000
2023-05-21T03:13:08.195Z,2.0000
2023-05-21T03:14:07.856Z,4.0000
2023-05-21T03:17:40.370Z,7.5000
2023-05-21T03:18:40.549Z,9.2174
2023-05-21T03:19:41.828Z,10.0000
2023-05-21T03:20:42.794Z,11.3333
2023-05-21T03:21:44.053Z,13.8333
2023-05-21T03:23:46.688Z,19.1667
2023-05-21T03:24:48.001Z,22.1667
2023-05-21T03:25:49.525Z,26.3333
2023-05-21T03:26:50.586Z,30.6667
2023-05-21T03:27:51.549Z,35.8333
2023-05-21T03:28:53.070Z,41.3333
2023-05-21T03:29:55.020Z,47.4074
2023-05-21T03:30:56.447Z,54.6667
2023-05-21T03:31:57.735Z,62.5000
2023-05-21T03:32:59.202Z,71.1667
2023-05-21T03:34:00.671Z,80.6667
2023-05-21T03:35:01.869Z,90.5000
2023-05-21T03:36:03.487Z,100.9600
2023-05-21T03:37:04.498Z,112.3333
2023-05-21T03:38:05.650Z,124.5000
2023-05-21T03:39:06.953Z,137.0000
2023-05-21T03:40:08.336Z,151.0000
2023-05-21T03:41:10.435Z,165.6667
2023-05-21T03:42:10.474Z,180.0000
2023-05-21T03:43:11.554Z,196.3333
2023-05-21T03:44:12.222Z,213.0435
2023-05-21T03:45:12.922Z,229.3333
2023-05-21T03:46:13.866Z,247.6667
2023-05-21T03:47:14.110Z,265.7600
2023-05-21T03:48:15.315Z,286.0000
2023-05-21T03:49:16.955Z,306.4615
2023-05-21T03:50:17.964Z,331.0000
2023-05-21T03:51:18.511Z,354.4615
2023-05-21T03:52:20.766Z,381.3333
2023-05-21T03:53:21.391Z,409.6000
2023-05-21T03:54:22.595Z,440.6667
2023-05-21T03:55:23.741Z,474.1538
2023-05-21T03:56:25.184Z,512.8333
2023-05-21T03:57:26.264Z,553.3333
2023-05-21T03:58:27.878Z,596.5000
2023-05-21T03:59:30.194Z,643.0400
2023-05-21T04:01:30.469Z,747.5200
2023-05-21T04:02:32.028Z,811.3043
2023-05-21T04:10:41.227Z,1419.2593
2023-05-21T04:11:42.133Z,1510.6666
2023-05-21T04:12:43.700Z,1601.5000
2023-05-21T04:13:45.412Z,1697.1666
2023-05-21T04:15:47.113Z,1893.5000
2023-05-21T04:16:49.725Z,1994.0000
2023-05-21T04:22:56.654Z,2623.0000
2023-05-21T04:23:56.730Z,2723.6924
2023-05-21T04:25:57.010Z,2953.1667
2023-05-21T04:26:58.506Z,3061.5000
2023-05-21T04:28:00.055Z,3165.3333
2023-05-21T04:29:02.475Z,3271.8333
2023-05-21T04:30:04.025Z,3364.0000
2023-05-21T04:31:06.209Z,3473.8333
2023-05-21T04:32:06.241Z,3592.6956
2023-05-21T04:33:08.472Z,3710.3999
2023-05-21T04:34:10.422Z,3836.3333
2023-05-21T04:36:10.621Z,4041.8462
2023-05-21T04:37:12.337Z,4144.6665
2023-05-21T04:38:14.598Z,4231.6802
2023-05-21T04:39:15.247Z,4314.3999
2023-05-21T04:40:17.079Z,4403.5386
2023-05-21T04:41:19.118Z,4521.6665
2023-05-21T04:42:20.332Z,4642.3335
2023-05-21T04:43:23.114Z,4743.4072
2023-05-21T04:44:25.268Z,4839.6802
2023-05-21T04:50:29.835Z,5403.0000
2023-05-21T04:51:31.179Z,5517.1665
2023-05-21T04:52:32.958Z,5594.8335
2023-05-21T04:53:34.955Z,5691.8335
2023-05-21T04:54:36.156Z,5797.1665
2023-05-21T04:55:38.429Z,5909.5000
2023-05-21T04:58:40.093Z,6264.0000
2023-05-21T04:59:40.980Z,6387.0000
2023-05-21T05:00:41.853Z,6505.9199
2023-05-21T05:01:42.915Z,6645.8335
2023-05-21T05:02:44.806Z,6794.5000
2023-05-21T05:03:46.462Z,6933.8335
2023-05-21T05:04:48.095Z,7068.8335
2023-05-21T05:05:49.253Z,7194.3335
2023-05-21T05:06:49.486Z,7311.6924
2023-05-21T05:07:49.492Z,7415.2310
2023-05-21T05:08:51.020Z,7513.6665
2023-05-21T05:09:53.252Z,7615.8462
2023-05-21T05:10:54.247Z,7718.6665
2023-05-21T05:11:56.750Z,7826.0000
2023-05-21T05:12:58.922Z,7957.0000
2023-05-21T05:14:00.222Z,8091.6802
2023-05-21T05:15:02.659Z,8233.1670
2023-05-21T05:25:15.206Z,9144.6670
2023-05-21T05:26:16.692Z,9181.8330
2023-05-21T05:27:19.070Z,9234.6670
2023-05-21T05:29:20.718Z,9343.3330
2023-05-21T05:30:21.670Z,9412.3330
2023-05-21T05:31:22.735Z,9494.0000
2023-05-21T05:32:24.474Z,9571.3330
2023-05-21T05:33:26.096Z,9654.6670
2023-05-21T05:34:28.112Z,9756.5000
2023-05-21T05:35:29.080Z,9849.1670
2023-05-21T05:36:29.546Z,9966.9229
2023-05-21T05:37:31.940Z,10100.7412
2023-05-21T05:38:32.927Z,10267.3330
2023-05-21T05:39:33.925Z,10415.8330
2023-05-21T05:40:35.657Z,10557.1670
2023-05-21T05:41:36.803Z,10723.0000
2023-05-21T05:42:37.718Z,10926.9229
2023-05-21T05:43:38.699Z,11125.6924
2023-05-21T05:44:40.774Z,11303.8330
2023-05-21T05:49:45.000Z,11918.5000
2023-05-21T05:50:45.958Z,12086.3330
2023-05-21T05:51:46.747Z,12285.0000
2023-05-21T05:52:48.290Z,12462.3330
2023-05-21T05:54:50.087Z,12841.0371
2023-05-21T05:55:51.604Z,13034.6670
2023-05-21T05:56:53.209Z,13166.8330
2023-05-21T05:57:54.142Z,13287.0000
2023-05-21T05:58:55.043Z,13448.6670
2023-05-21T05:59:56.666Z,13630.5000
2023-05-21T06:00:57.584Z,13821.1670
2023-05-21T06:01:58.103Z,14003.5195
2023-05-21T06:02:59.161Z,14184.0000
2023-05-21T06:04:00.413Z,14373.3330
2023-05-21T06:05:01.959Z,14520.1543
2023-05-21T06:06:04.004Z,14648.0000
2023-05-21T06:14:10.232Z,15805.0000
2023-05-21T06:15:15.931Z,15932.0000
2023-05-21T06:18:13.771Z,16438.3340
2023-05-21T06:19:14.924Z,16750.8340
2023-05-21T06:20:17.152Z,16969.3340
2023-05-21T06:21:17.277Z,17192.3477
2023-05-21T06:22:18.398Z,17394.6660
2023-05-21T06:23:19.812Z,17592.0000
2023-05-21T06:24:21.056Z,17784.0000
2023-05-21T06:25:21.608Z,17994.2402
2023-05-21T06:26:23.056Z,18226.6660
2023-05-21T06:27:25.918Z,18408.2969
2023-05-21T06:28:27.225Z,18580.0000
2023-05-21T06:29:28.605Z,18756.0000
2023-05-21T06:30:30.716Z,18933.3340
2023-05-21T06:31:32.470Z,19126.6660
2023-05-21T06:32:35.253Z,19392.0000
2023-05-21T06:41:44.128Z,21313.2305
2023-05-21T06:42:45.468Z,21270.6660
2023-05-21T06:43:47.034Z,21474.4609
2023-05-21T06:44:49.172Z,21552.0000
2023-05-21T06:45:49.219Z,21551.3047
2023-05-21T06:47:51.475Z,21756.0000
2023-05-21T06:48:51.891Z,21611.0762
2023-05-21T06:50:52.485Z,21520.6406
2023-05-21T06:51:55.384Z,21721.3340
2023-05-21T06:53:57.657Z,21912.6152
2023-05-21T06:54:59.866Z,22208.0000
2023-05-21T06:56:00.476Z,22238.6660
2023-05-21T06:57:00.907Z,21984.0000
2023-05-21T06:58:02.746Z,21642.6660
2023-05-21T06:59:05.016Z,21292.0000
2023-05-21T07:00:05.037Z,21126.9570
2023-05-21T07:02:08.145Z,21725.2168
2023-05-21T07:03:09.903Z,21764.9238
2023-05-21T07:04:10.664Z,21596.1602
2023-05-21T07:05:12.740Z,21589.3340
2023-05-21T07:06:12.878Z,21552.6953
2023-05-21T07:07:14.619Z,21470.8145
2023-05-21T07:08:17.100Z,21504.0000
2023-05-21T07:09:17.882Z,21891.6914
2023-05-21T07:12:22.100Z,22361.3340
2023-05-21T07:13:22.654Z,23517.2168
2023-05-21T07:19:31.088Z,24294.6660
2023-05-21T07:25:38.469Z,26094.0801
2023-05-21T07:26:39.685Z,28101.1191
2023-05-21T07:27:40.467Z,30396.1602
2023-05-21T07:28:41.253Z,32307.1992
2023-05-21T07:29:44.172Z,29965.5391
2023-05-21T07:30:44.430Z,27580.1602
2023-05-21T07:31:45.676Z,32248.0000
2023-05-21T07:32:46.999Z,35546.6680
2023-05-21T07:33:48.759Z,34713.3320
2023-05-21T07:34:49.646Z,31534.6660
2023-05-21T07:36:51.030Z,23293.3340
2023-05-21T07:39:52.865Z,29604.0000
2023-05-21T07:40:54.526Z,34418.4609
2023-05-21T07:41:56.604Z,34646.1523
2023-05-21T07:47:02.446Z,39728.0000
2023-05-21T07:48:04.637Z,40684.0000
2023-05-21T07:50:06.418Z,38621.3320
2023-05-21T07:51:06.954Z,37815.6523
2023-05-21T07:53:08.782Z,39590.6680
2023-05-21T07:54:09.474Z,39536.6953
2023-05-21T07:56:09.804Z,34377.8477
2023-05-21T07:57:10.557Z,39981.3320
2023-05-21T07:58:11.308Z,44875.5195
2023-05-21T07:59:13.896Z,37963.5195
2023-05-21T08:00:13.818Z,32732.0000
2023-05-21T08:05:17.698Z,39544.0000
2023-05-21T08:06:17.780Z,38999.6523
2023-05-21T08:07:19.911Z,36281.3320
2023-05-21T08:08:20.600Z,34841.0430
2023-05-21T08:09:20.699Z,33423.3047
2023-05-21T08:10:20.877Z,35670.2617
2023-05-21T08:11:22.625Z,31934.7207
2023-05-21T08:12:23.383Z,28977.3340
2023-05-21T08:14:24.431Z,23550.6094
2023-05-21T08:15:25.467Z,22971.8262
2023-05-21T08:16:26.680Z,22736.6953
2023-05-21T08:17:29.315Z,22414.6660
2023-05-21T08:18:29.719Z,22358.2617
2023-05-21T08:19:30.599Z,22247.6797
2023-05-21T08:20:33.184Z,22410.2402
2023-05-21T08:21:33.581Z,22585.0430
2023-05-21T08:22:34.161Z,22871.3848
2023-05-21T08:23:35.153Z,23283.6914
2023-05-21T08:24:35.366Z,23291.0762
2023-05-21T08:25:36.586Z,23168.0000
2023-05-21T08:26:37.421Z,22969.3340
2023-05-21T08:28:39.313Z,23612.1602
2023-05-21T08:29:41.453Z,30180.0000
2023-05-21T08:30:42.041Z,45963.1289
2023-05-21T08:32:45.228Z,51221.3320
2023-05-21T08:33:46.316Z,30436.9238
2023-05-21T08:41:50.154Z,76587.5234
2023-05-21T08:42:51.935Z,76272.0000
2023-05-21T08:43:54.901Z,78976.0000
2023-05-21T08:44:53.684Z,79734.0000
2023-05-21T08:45:56.029Z,79692.0000
2023-05-21T08:46:56.511Z,77894.3984
2023-05-21T08:47:59.189Z,68349.3359
2023-05-21T08:49:00.157Z,49509.1211
2023-05-21T08:50:01.970Z,42609.2305
2023-05-21T08:51:02.785Z,57544.9609
2023-05-21T08:52:03.807Z,64413.3320
2023-05-21T08:53:12.721Z,59516.3086
2023-05-21T08:55:07.229Z,55357.3320
2023-05-21T09:01:19.800Z,54916.9219
2023-05-21T09:02:19.671Z,61111.0391
2023-05-21T09:03:21.915Z,68100.7422
2023-05-21T09:04:23.513Z,76065.2812
2023-05-21T09:05:23.749Z,70154.2422
2023-05-21T09:06:25.997Z,47804.0000
2023-05-21T09:07:26.982Z,73412.9219
2023-05-21T09:08:28.198Z,66559.6953
2023-05-21T09:09:29.548Z,85629.5391
2023-05-21T09:10:30.983Z,85762.4609
2023-05-21T09:11:31.477Z,86437.3359
2023-05-21T09:12:33.610Z,78351.4062
2023-05-21T09:13:39.266Z,62560.0000
2023-05-21T09:21:42.911Z,84249.6016
2023-05-21T09:22:44.157Z,83296.0000
2023-05-21T09:24:46.076Z,62986.6680
2023-05-21T09:25:47.369Z,83057.2344
2023-05-21T09:26:47.701Z,87906.7812
2023-05-21T09:27:49.970Z,90620.7969
2023-05-21T09:28:51.719Z,92480.0000
2023-05-21T09:29:53.359Z,92585.3359
2023-05-21T09:30:59.976Z,92489.3359
2023-05-21T09:38:04.122Z,63596.3086
2023-05-21T09:39:06.252Z,63789.3320
2023-05-21T09:40:07.625Z,66284.3047
2023-05-21T09:41:09.638Z,66477.5391
2023-05-21T09:42:11.909Z,58638.0781
2023-05-21T09:43:13.072Z,69693.4375
2023-05-21T09:44:15.650Z,75553.3359
2023-05-21T09:45:17.614Z,79110.6641
2023-05-21T09:47:19.543Z,80022.1562
2023-05-21T09:48:19.901Z,76064.0000
2023-05-21T09:49:20.988Z,66227.2031
2023-05-21T09:50:23.247Z,73998.6641
2023-05-21T09:51:23.463Z,88502.2578
2023-05-21T09:52:23.589Z,86096.6953
2023-05-21T09:53:25.225Z,89332.7031
2023-05-21T09:54:26.625Z,89044.9219
2023-05-21T09:55:28.325Z,74390.6641
2023-05-21T09:56:29.639Z,68499.2031
2023-05-21T09:57:29.670Z,86551.6484
2023-05-21T09:58:31.549Z,79758.2188
2023-05-21T09:59:33.472Z,88465.2344
2023-05-21T10:00:34.155Z,85036.0000
2023-05-21T10:01:35.647Z,79401.8438
2023-05-21T10:02:38.153Z,64013.5391
2023-05-21T10:03:39.989Z,74028.3047
2023-05-21T10:04:41.321Z,83152.6406
2023-05-21T10:05:42.406Z,85380.9219
2023-05-21T10:06:44.324Z,82653.5391
2023-05-21T10:07:46.403Z,61529.8477
2023-05-21T10:10:49.211Z,47562.6680
2023-05-21T10:11:49.474Z,52059.0781
2023-05-21T10:13:50.986Z,25708.8008
2023-05-21T10:15:51.888Z,24200.0000
2023-05-21T10:16:53.942Z,24633.3340
2023-05-21T10:17:55.533Z,24961.3340
2023-05-21T10:18:56.707Z,25354.6660
2023-05-21T10:19:58.133Z,25533.3340
2023-05-21T10:20:58.385Z,25899.5195
2023-05-21T10:21:59.339Z,26068.4805
2023-05-21T10:23:00.606Z,25974.1543
2023-05-21T10:24:01.194Z,26397.4395
2023-05-21T10:25:01.782Z,26724.9238
2023-05-21T10:26:04.019Z,27357.6289
2023-05-21T10:27:04.097Z,34621.5391
2023-05-21T10:28:07.166Z,45246.7695
2023-05-21T10:30:11.827Z,64210.4609
2023-05-21T10:35:12.376Z,64622.7695
2023-05-21T10:36:13.922Z,35824.0000
2023-05-21T10:38:15.252Z,26654.6660
2023-05-21T10:41:29.918Z,26422.6660
2023-05-21T10:49:33.106Z,28317.4395
2023-05-21T10:50:33.712Z,29734.9570
2023-05-21T10:51:35.075Z,41341.3320
2023-05-21T10:52:37.245Z,44731.0781
2023-05-21T10:53:37.935Z,61252.9219
2023-05-21T10:54:38.541Z,69458.6641
2023-05-21T10:55:38.958Z,62521.0430
2023-05-21T10:56:39.644Z,69077.7578
2023-05-21T10:57:41.911Z,65841.9219
2023-05-21T11:00:43.730Z,67228.1562
2023-05-21T11:01:45.858Z,70766.6641
2023-05-21T11:02:46.759Z,70448.0000
2023-05-21T11:04:48.082Z,75009.2344
2023-05-21T11:05:48.920Z,72306.4609
2023-05-21T11:06:49.762Z,74748.3047
2023-05-21T11:07:51.207Z,76443.0781
2023-05-21T11:08:53.788Z,75699.4766
2023-05-21T11:09:53.015Z,77401.0469
2023-05-21T11:10:53.262Z,77554.4609
2023-05-21T11:16:59.715Z,80962.6641
2023-05-21T11:18:01.775Z,81500.1562
2023-05-21T11:19:03.855Z,76744.6172
2023-05-21T11:21:04.567Z,72027.0781
2023-05-21T11:22:07.235Z,71669.3359
2023-05-21T11:23:07.745Z,75852.7969
2023-05-21T11:24:08.040Z,83112.9609
2023-05-21T11:25:10.003Z,89147.0781
2023-05-21T11:26:12.105Z,92473.3359
2023-05-21T11:28:14.107Z,91976.6172
2023-05-21T11:29:15.031Z,92070.1562
2023-05-21T11:30:16.170Z,91668.9219
2023-05-21T11:31:17.829Z,89704.6172
2023-05-21T11:32:19.085Z,88838.3984
2023-05-21T11:33:20.299Z,87864.3203
2023-05-21T11:34:22.747Z,85080.3203
2023-05-21T11:35:22.835Z,83384.0000
2023-05-21T11:36:24.071Z,79944.6172
2023-05-21T11:37:27.543Z,82196.4766
2023-05-21T11:39:27.681Z,83887.4062
2023-05-21T11:47:36.728Z,79959.3828
2023-05-21T11:49:37.223Z,76356.9219
2023-05-21T11:50:38.304Z,73696.0000
2023-05-21T11:51:38.369Z,71814.9531
2023-05-21T11:52:39.797Z,74656.0000
2023-05-21T11:53:44.028Z,79365.1172
2023-05-21T11:54:41.995Z,82937.3359
2023-05-21T11:56:45.846Z,91600.0000
2023-05-21T11:57:47.293Z,94641.9219
2023-05-21T11:58:48.111Z,93991.3828
2023-05-21T11:59:49.985Z,90671.4062
2023-05-21T12:00:52.635Z,85871.4062
2023-05-21T12:01:54.134Z,81326.7656
2023-05-21T12:02:54.895Z,77531.0781
2023-05-21T12:03:56.858Z,77530.8828
2023-05-21T12:04:59.150Z,80582.3984
2023-05-21T12:06:00.456Z,84089.8438
2023-05-21T12:07:01.738Z,87193.6016
2023-05-21T12:08:02.126Z,90459.0781
2023-05-21T12:09:03.186Z,91718.1562
2023-05-21T12:10:04.171Z,92962.4609
2023-05-21T12:11:04.858Z,90880.0000
2023-05-21T12:15:06.501Z,71057.9219
2023-05-21T12:16:07.323Z,69079.3828
2023-05-21T12:18:07.451Z,65325.5391
2023-05-21T12:19:07.633Z,65038.7695
2023-05-21T12:20:08.326Z,66427.0781
2023-05-21T12:22:11.408Z,70191.4062
2023-05-21T12:23:13.438Z,70865.2344
2023-05-21T12:24:14.152Z,70044.3047
2023-05-21T12:25:15.257Z,71566.7656
2023-05-21T12:26:18.178Z,69952.0000
2023-05-21T12:27:19.986Z,70300.3047
2023-05-21T12:33:25.323Z,64901.9258
2023-05-21T12:34:28.036Z,56636.3086
2023-05-21T12:37:31.006Z,50612.4805
2023-05-21T12:39:31.442Z,63054.0781
2023-05-21T12:40:32.965Z,64044.8008
2023-05-21T12:41:34.338Z,62214.6680
2023-05-21T12:42:34.826Z,57376.0000
2023-05-21T12:43:36.268Z,55074.6680
2023-05-21T12:44:38.672Z,52512.0000
2023-05-21T12:45:41.312Z,50680.6172
2023-05-21T12:46:41.456Z,46553.0430
2023-05-21T12:53:50.399Z,51354.6680
2023-05-21T12:54:51.718Z,48870.1523
2023-05-21T12:55:53.638Z,50250.6680
2023-05-21T12:56:56.234Z,49642.6680
2023-05-21T12:57:56.972Z,47425.2812
2023-05-21T12:59:57.670Z,44670.7695
2023-05-21T13:00:59.434Z,43309.5391
2023-05-21T13:01:59.631Z,44264.9609
2023-05-21T13:03:59.608Z,48235.5195
2023-05-21T13:04:59.908Z,49935.3594
2023-05-21T13:06:01.987Z,50878.6680
2023-05-21T13:07:04.824Z,52211.1992
2023-05-21T13:08:04.769Z,55312.0000
2023-05-21T13:09:06.382Z,59667.6914
2023-05-21T13:10:07.946Z,62853.1211
2023-05-21T13:11:10.676Z,60243.1992
2023-05-21T13:12:12.726Z,56065.2812
2023-05-21T13:14:14.275Z,54665.4805
2023-05-21T13:20:19.178Z,42296.6172
2023-05-21T13:21:21.089Z,42768.6406
2023-05-21T13:22:22.024Z,43686.1523
2023-05-21T13:23:24.881Z,43468.3086
2023-05-21T13:28:28.155Z,48448.0000
2023-05-21T13:29:30.051Z,47998.6680
2023-05-21T13:30:30.944Z,48316.0000
2023-05-21T13:31:32.742Z,49415.3828
2023-05-21T13:32:33.204Z,48445.4414
2023-05-21T13:33:35.151Z,48202.6680
2023-05-21T13:34:36.150Z,50247.3828
2023-05-21T13:35:36.214Z,53629.5391
2023-05-21T13:36:37.081Z,56323.8398
2023-05-21T13:37:37.064Z,57528.0000
2023-05-21T13:38:38.549Z,56536.6172
2023-05-21T13:39:39.766Z,56522.2383
2023-05-21T13:40:40.365Z,54257.3320
2023-05-21T13:41:41.054Z,52648.6172
2023-05-21T13:42:41.143Z,48993.2305
2023-05-21T13:43:43.686Z,44530.4609
2023-05-21T13:44:44.478Z,41186.6680
2023-05-21T13:51:51.492Z,35726.0781
2023-05-21T13:52:53.676Z,35258.6680
2023-05-21T13:53:55.602Z,35117.5391
2023-05-21T13:54:55.013Z,33805.9141
2023-05-21T13:56:55.412Z,31675.0762
2023-05-21T13:57:56.058Z,32295.6797
2023-05-21T13:58:56.588Z,33711.3047
2023-05-21T13:59:57.246Z,34807.3828
2023-05-21T14:01:59.854Z,36891.2578
2023-05-21T14:03:01.594Z,41805.5391
2023-05-21T14:04:02.243Z,40833.2812
2023-05-21T14:05:05.218Z,37482.2383
2023-05-21T14:06:06.327Z,38496.0000
2023-05-21T14:07:07.600Z,42692.9219
2023-05-21T14:09:10.876Z,45076.0000
2023-05-21T14:10:12.544Z,43785.8477
2023-05-21T14:11:12.852Z,41575.3828
2023-05-21T14:12:14.869Z,42043.0781
2023-05-21T14:13:19.970Z,54685.5391
2023-05-21T14:14:17.532Z,67993.3359
2023-05-21T14:15:18.379Z,73849.6016
2023-05-21T14:16:20.289Z,73340.0000
2023-05-21T14:17:22.433Z,74224.5938
2023-05-21T14:18:23.842Z,73742.7656
2023-05-21T14:19:24.873Z,74504.6172
2023-05-21T14:20:24.889Z,76696.6172
2023-05-21T14:21:26.389Z,73697.2344
2023-05-21T14:22:26.641Z,70045.3359
2023-05-21T14:24:34.361Z,63388.1602
2023-05-21T14:29:33.162Z,51691.5195
2023-05-21T14:30:33.921Z,48332.3086
2023-05-21T14:31:36.092Z,46242.5586
2023-05-21T14:32:36.693Z,49859.8398
2023-05-21T14:33:37.706Z,54074.8789
2023-05-21T14:36:41.983Z,50248.9609
2023-05-21T14:37:42.604Z,48473.8477
2023-05-21T14:38:43.844Z,47142.6680
2023-05-21T14:40:44.101Z,37207.3828
2023-05-21T14:41:46.106Z,27975.1113
2023-05-21T14:42:48.212Z,46826.2383
2023-05-21T14:43:48.786Z,43931.8242
2023-05-21T14:44:49.304Z,43310.7695
2023-05-21T14:45:50.683Z,43780.9219
2023-05-21T14:46:50.703Z,45944.6172
2023-05-21T14:47:52.088Z,45480.9609
2023-05-21T14:48:53.881Z,50172.3086
2023-05-21T14:49:54.844Z,32427.0762
2023-05-21T14:50:56.292Z,23772.3086
2023-05-21T14:51:58.223Z,22135.0391
2023-05-21T14:52:58.546Z,21474.4609
2023-05-21T14:53:59.084Z,21062.1543
2023-05-21T14:55:01.129Z,20738.6660
2023-05-21T14:56:01.144Z,20517.1191
2023-05-21T14:57:01.416Z,20257.2305
2023-05-21T14:58:03.507Z,20094.7207
2023-05-21T14:59:04.958Z,19953.2305
2023-05-21T15:00:05.535Z,19889.2305
2023-05-21T15:01:06.407Z,19959.0391
2023-05-21T15:02:07.193Z,20339.1992
2023-05-21T15:03:07.728Z,20807.6797
2023-05-21T15:04:08.336Z,21256.3477
2023-05-21T15:05:09.552Z,21245.3340
2023-05-21T15:07:10.864Z,19596.8008
2023-05-21T15:08:12.244Z,19285.3340
2023-05-21T15:09:12.991Z,17346.0000
2023-05-21T15:10:16.598Z,18950.1543
2023-05-21T15:11:16.900Z,21688.7266
2023-05-21T15:12:18.317Z,26522.6660
2023-05-21T15:14:20.312Z,27897.3340
2023-05-21T15:15:20.936Z,29210.6660
2023-05-21T15:16:22.220Z,32044.0000
2023-05-21T15:18:25.734Z,36320.0000
2023-05-21T15:19:26.252Z,38225.2305
2023-05-21T15:20:27.090Z,39105.2305
2023-05-21T15:21:29.107Z,39282.4609
2023-05-21T15:22:30.497Z,39819.1289
2023-05-21T15:24:32.649Z,45286.6680
2023-05-21T15:25:33.867Z,45610.6680
2023-05-21T15:26:34.694Z,47121.3320
2023-05-21T15:27:35.573Z,49187.6914
2023-05-21T15:28:37.500Z,49899.0781
2023-05-21T15:29:38.171Z,50517.7617
2023-05-21T15:30:38.886Z,51004.3086
2023-05-21T15:31:39.429Z,50222.0781
2023-05-21T15:33:40.622Z,50233.3320
2023-05-21T15:34:40.662Z,50400.0000
2023-05-21T15:35:43.661Z,44330.6680
2023-05-21T15:37:44.808Z,50109.4414
2023-05-21T15:38:45.262Z,51194.8789
2023-05-21T15:40:47.909Z,55346.6680
2023-05-21T15:41:49.017Z,56332.3086
2023-05-21T15:42:49.641Z,55847.3828
2023-05-21T15:43:51.318Z,54396.3086
2023-05-21T15:44:52.238Z,45685.3320
2023-05-21T15:45:53.266Z,49175.0391
2023-05-21T15:46:53.084Z,52476.1602
2023-05-21T15:47:54.240Z,61141.3320
2023-05-21T15:48:55.948Z,47180.8008
2023-05-21T15:49:58.132Z,50948.0000
2023-05-21T15:50:58.632Z,45826.6680
2023-05-21T15:51:59.981Z,47321.8477
2023-05-21T15:53:01.720Z,48669.5391
2023-05-21T15:57:34.196Z,52164.9219
2023-05-21T15:58:39.025Z,49106.4609
2023-05-21T16:07:44.528Z,46134.1523
2023-05-21T16:08:45.977Z,41537.2305
2023-05-21T16:09:48.290Z,35575.3828
2023-05-21T16:10:50.265Z,42694.1523
2023-05-21T16:11:52.180Z,41256.6172
2023-05-21T16:12:52.363Z,41400.3203
2023-05-21T16:13:54.178Z,39533.3320
2023-05-21T16:18:30.409Z,30492.1602